sensor_id;sensor_type;location;lat;lon;timestamp;temperature;humidity
28546;DHT22;15749;49.606;8.738;2023-02-14T00:00:06;11.50;71.70
28546;DHT22;15749;49.606;8.738;2023-02-14T00:02:36;11.40;71.00
28546;DHT22;15749;49.606;8.738;2023-02-14T00:05:05;11.40;70.90
28546;DHT22;15749;49.606;8.738;2023-02-14T00:07:35;11.40;71.00
28546;DHT22;15749;49.606;8.738;2023-02-14T00:10:04;11.40;71.00
28546;DHT22;15749;49.606;8.738;2023-02-14T00:12:35;11.40;71.10
28546;DHT22;15749;49.606;8.738;2023-02-14T00:15:06;11.40;71.20
28546;DHT22;15749;49.606;8.738;2023-02-14T00:17:51;11.30;71.30
28546;DHT22;15749;49.606;8.738;2023-02-14T00:20:22;11.30;71.30
28546;DHT22;15749;49.606;8.738;2023-02-14T00:22:54;11.30;71.30
28546;DHT22;15749;49.606;8.738;2023-02-14T00:25:23;11.30;71.30
28546;DHT22;15749;49.606;8.738;2023-02-14T00:27:52;11.30;71.40
28546;DHT22;15749;49.606;8.738;2023-02-14T00:30:23;11.30;71.40
28546;DHT22;15749;49.606;8.738;2023-02-14T00:32:52;11.20;71.40
28546;DHT22;15749;49.606;8.738;2023-02-14T00:35:21;11.30;72.20
28546;DHT22;15749;49.606;8.738;2023-02-14T00:37:53;11.20;71.40
28546;DHT22;15749;49.606;8.738;2023-02-14T00:40:22;11.20;71.20
28546;DHT22;15749;49.606;8.738;2023-02-14T00:42:53;11.20;71.00
28546;DHT22;15749;49.606;8.738;2023-02-14T00:45:23;11.10;70.60
28546;DHT22;15749;49.606;8.738;2023-02-14T00:47:52;11.10;70.60
28546;DHT22;15749;49.606;8.738;2023-02-14T00:50:21;11.10;71.60
28546;DHT22;15749;49.606;8.738;2023-02-14T00:52:54;11.10;71.10
28546;DHT22;15749;49.606;8.738;2023-02-14T00:55:23;11.10;71.20
28546;DHT22;15749;49.606;8.738;2023-02-14T00:57:52;11.00;71.30
28546;DHT22;15749;49.606;8.738;2023-02-14T01:00:23;11.00;71.40
28546;DHT22;15749;49.606;8.738;2023-02-14T01:02:55;11.00;71.50
28546;DHT22;15749;49.606;8.738;2023-02-14T01:05:24;11.00;72.20
28546;DHT22;15749;49.606;8.738;2023-02-14T01:07:53;11.00;71.40
28546;DHT22;15749;49.606;8.738;2023-02-14T01:10:22;11.00;71.90
28546;DHT22;15749;49.606;8.738;2023-02-14T01:12:51;10.90;71.90
28546;DHT22;15749;49.606;8.738;2023-02-14T01:15:20;10.90;71.20
28546;DHT22;15749;49.606;8.738;2023-02-14T01:17:51;10.90;71.90
28546;DHT22;15749;49.606;8.738;2023-02-14T01:20:21;10.90;72.00
28546;DHT22;15749;49.606;8.738;2023-02-14T01:22:51;10.90;71.30
28546;DHT22;15749;49.606;8.738;2023-02-14T01:25:20;10.90;71.30
28546;DHT22;15749;49.606;8.738;2023-02-14T01:27:50;10.80;71.30
28546;DHT22;15749;49.606;8.738;2023-02-14T01:30:20;10.80;71.40
28546;DHT22;15749;49.606;8.738;2023-02-14T01:32:51;10.80;71.60
28546;DHT22;15749;49.606;8.738;2023-02-14T01:35:24;10.80;71.70
28546;DHT22;15749;49.606;8.738;2023-02-14T01:37:53;10.80;71.80
28546;DHT22;15749;49.606;8.738;2023-02-14T01:40:25;10.80;71.80
28546;DHT22;15749;49.606;8.738;2023-02-14T01:42:54;10.70;71.50
28546;DHT22;15749;49.606;8.738;2023-02-14T01:45:25;10.70;71.30
28546;DHT22;15749;49.606;8.738;2023-02-14T01:47:59;10.70;71.10
28546;DHT22;15749;49.606;8.738;2023-02-14T01:50:31;10.70;71.00
28546;DHT22;15749;49.606;8.738;2023-02-14T01:53:06;10.70;71.00
28546;DHT22;15749;49.606;8.738;2023-02-14T01:55:39;10.60;70.90
28546;DHT22;15749;49.606;8.738;2023-02-14T01:58:14;10.60;71.00
28546;DHT22;15749;49.606;8.738;2023-02-14T02:00:45;10.60;71.30
28546;DHT22;15749;49.606;8.738;2023-02-14T02:03:31;10.60;71.30
28546;DHT22;15749;49.606;8.738;2023-02-14T02:06:08;10.60;71.80
28546;DHT22;15749;49.606;8.738;2023-02-14T02:08:51;10.50;71.90
28546;DHT22;15749;49.606;8.738;2023-02-14T02:11:24;10.50;71.90
28546;DHT22;15749;49.606;8.738;2023-02-14T02:13:54;10.50;71.70
28546;DHT22;15749;49.606;8.738;2023-02-14T02:16:54;10.50;72.20
28546;DHT22;15749;49.606;8.738;2023-02-14T02:20:02;10.50;71.90
28546;DHT22;15749;49.606;8.738;2023-02-14T02:23:11;10.40;71.80
28546;DHT22;15749;49.606;8.738;2023-02-14T02:26:27;10.40;72.00
28546;DHT22;15749;49.606;8.738;2023-02-14T02:29:38;10.40;72.10
28546;DHT22;15749;49.606;8.738;2023-02-14T02:32:44;10.40;72.00
28546;DHT22;15749;49.606;8.738;2023-02-14T02:39:02;10.40;71.90
28546;DHT22;15749;49.606;8.738;2023-02-14T02:41:47;10.40;72.30
28546;DHT22;15749;49.606;8.738;2023-02-14T02:44:29;10.30;71.50
28546;DHT22;15749;49.606;8.738;2023-02-14T02:47:10;10.30;71.50
28546;DHT22;15749;49.606;8.738;2023-02-14T02:49:52;10.30;71.60
28546;DHT22;15749;49.606;8.738;2023-02-14T02:52:46;10.30;72.10
28546;DHT22;15749;49.606;8.738;2023-02-14T02:55:39;10.20;71.90
28546;DHT22;15749;49.606;8.738;2023-02-14T02:58:33;10.20;72.10
28546;DHT22;15749;49.606;8.738;2023-02-14T03:01:08;10.20;72.80
28546;DHT22;15749;49.606;8.738;2023-02-14T03:03:45;10.20;72.30
28546;DHT22;15749;49.606;8.738;2023-02-14T03:06:37;10.10;72.40
28546;DHT22;15749;49.606;8.738;2023-02-14T03:09:12;10.10;72.80
28546;DHT22;15749;49.606;8.738;2023-02-14T03:12:45;10.10;72.50
28546;DHT22;15749;49.606;8.738;2023-02-14T03:15:32;10.10;72.80
28546;DHT22;15749;49.606;8.738;2023-02-14T03:18:17;10.10;73.20
28546;DHT22;15749;49.606;8.738;2023-02-14T03:21:01;10.10;72.90
28546;DHT22;15749;49.606;8.738;2023-02-14T03:23:42;10.10;72.50
28546;DHT22;15749;49.606;8.738;2023-02-14T03:26:17;10.10;73.20
28546;DHT22;15749;49.606;8.738;2023-02-14T03:28:52;10.00;72.70
28546;DHT22;15749;49.606;8.738;2023-02-14T03:31:29;10.00;72.80
28546;DHT22;15749;49.606;8.738;2023-02-14T03:34:09;10.00;72.80
28546;DHT22;15749;49.606;8.738;2023-02-14T03:36:45;10.00;72.90
28546;DHT22;15749;49.606;8.738;2023-02-14T03:39:22;10.00;72.70
28546;DHT22;15749;49.606;8.738;2023-02-14T03:41:58;10.00;72.90
28546;DHT22;15749;49.606;8.738;2023-02-14T03:44:35;10.00;72.90
28546;DHT22;15749;49.606;8.738;2023-02-14T03:47:07;10.00;72.80
28546;DHT22;15749;49.606;8.738;2023-02-14T03:49:41;10.00;72.90
28546;DHT22;15749;49.606;8.738;2023-02-14T03:52:13;9.90;73.70
28546;DHT22;15749;49.606;8.738;2023-02-14T03:54:44;9.90;72.80
28546;DHT22;15749;49.606;8.738;2023-02-14T03:57:21;9.90;72.70
28546;DHT22;15749;49.606;8.738;2023-02-14T03:59:52;9.80;72.70
28546;DHT22;15749;49.606;8.738;2023-02-14T04:02:26;9.90;72.50
28546;DHT22;15749;49.606;8.738;2023-02-14T04:04:57;9.80;72.20
28546;DHT22;15749;49.606;8.738;2023-02-14T04:07:27;9.80;71.90
28546;DHT22;15749;49.606;8.738;2023-02-14T04:09:56;9.80;71.70
28546;DHT22;15749;49.606;8.738;2023-02-14T04:12:27;9.80;71.70
28546;DHT22;15749;49.606;8.738;2023-02-14T04:15:05;9.80;71.90
28546;DHT22;15749;49.606;8.738;2023-02-14T04:17:35;9.70;72.00
28546;DHT22;15749;49.606;8.738;2023-02-14T04:20:21;9.70;72.10
28546;DHT22;15749;49.606;8.738;2023-02-14T04:22:51;9.70;72.20
28546;DHT22;15749;49.606;8.738;2023-02-14T04:25:21;9.70;72.20
28546;DHT22;15749;49.606;8.738;2023-02-14T04:27:52;9.70;72.20
28546;DHT22;15749;49.606;8.738;2023-02-14T04:30:21;9.70;72.10
28546;DHT22;15749;49.606;8.738;2023-02-14T04:32:50;9.70;72.20
28546;DHT22;15749;49.606;8.738;2023-02-14T04:35:19;9.60;72.30
28546;DHT22;15749;49.606;8.738;2023-02-14T04:37:48;9.70;72.60
28546;DHT22;15749;49.606;8.738;2023-02-14T04:40:17;9.60;72.60
28546;DHT22;15749;49.606;8.738;2023-02-14T04:42:47;9.60;72.80
28546;DHT22;15749;49.606;8.738;2023-02-14T04:45:17;9.60;72.80
28546;DHT22;15749;49.606;8.738;2023-02-14T04:47:46;9.70;73.00
28546;DHT22;15749;49.606;8.738;2023-02-14T04:50:19;9.60;72.80
28546;DHT22;15749;49.606;8.738;2023-02-14T04:52:49;9.50;72.70
28546;DHT22;15749;49.606;8.738;2023-02-14T04:55:18;9.50;72.60
28546;DHT22;15749;49.606;8.738;2023-02-14T04:57:47;9.50;72.50
28546;DHT22;15749;49.606;8.738;2023-02-14T05:00:21;9.50;72.30
28546;DHT22;15749;49.606;8.738;2023-02-14T05:02:50;9.50;72.50
28546;DHT22;15749;49.606;8.738;2023-02-14T05:05:19;9.50;72.40
28546;DHT22;15749;49.606;8.738;2023-02-14T05:07:48;9.50;72.50
28546;DHT22;15749;49.606;8.738;2023-02-14T05:10:17;9.50;72.70
28546;DHT22;15749;49.606;8.738;2023-02-14T05:12:46;9.50;72.90
28546;DHT22;15749;49.606;8.738;2023-02-14T05:15:18;9.50;73.00
28546;DHT22;15749;49.606;8.738;2023-02-14T05:17:49;9.50;73.10
28546;DHT22;15749;49.606;8.738;2023-02-14T05:20:18;9.40;73.10
28546;DHT22;15749;49.606;8.738;2023-02-14T05:22:47;9.40;73.10
28546;DHT22;15749;49.606;8.738;2023-02-14T05:25:16;9.40;73.20
28546;DHT22;15749;49.606;8.738;2023-02-14T05:27:45;9.40;73.20
28546;DHT22;15749;49.606;8.738;2023-02-14T05:30:14;9.40;73.00
28546;DHT22;15749;49.606;8.738;2023-02-14T05:32:48;9.40;73.10
28546;DHT22;15749;49.606;8.738;2023-02-14T05:35:17;9.40;73.10
28546;DHT22;15749;49.606;8.738;2023-02-14T05:37:46;9.40;73.10
28546;DHT22;15749;49.606;8.738;2023-02-14T05:40:15;9.30;73.70
28546;DHT22;15749;49.606;8.738;2023-02-14T05:42:44;9.30;73.10
28546;DHT22;15749;49.606;8.738;2023-02-14T05:45:14;9.30;73.10
28546;DHT22;15749;49.606;8.738;2023-02-14T05:47:43;9.30;73.20
28546;DHT22;15749;49.606;8.738;2023-02-14T05:50:13;9.30;73.30
28546;DHT22;15749;49.606;8.738;2023-02-14T05:52:45;9.30;73.40
28546;DHT22;15749;49.606;8.738;2023-02-14T05:55:14;9.30;73.10
28546;DHT22;15749;49.606;8.738;2023-02-14T05:57:43;9.30;72.90
28546;DHT22;15749;49.606;8.738;2023-02-14T06:00:14;9.20;72.70
28546;DHT22;15749;49.606;8.738;2023-02-14T06:02:43;9.20;72.90
28546;DHT22;15749;49.606;8.738;2023-02-14T06:05:17;9.20;72.70
28546;DHT22;15749;49.606;8.738;2023-02-14T06:07:49;9.20;72.50
28546;DHT22;15749;49.606;8.738;2023-02-14T06:10:20;9.20;72.20
28546;DHT22;15749;49.606;8.738;2023-02-14T06:12:52;9.20;72.00
28546;DHT22;15749;49.606;8.738;2023-02-14T06:15:22;9.10;71.80
28546;DHT22;15749;49.606;8.738;2023-02-14T06:17:51;9.10;71.80
28546;DHT22;15749;49.606;8.738;2023-02-14T06:20:23;9.10;71.90
28546;DHT22;15749;49.606;8.738;2023-02-14T06:22:52;9.10;71.90
28546;DHT22;15749;49.606;8.738;2023-02-14T06:25:22;9.10;72.10
28546;DHT22;15749;49.606;8.738;2023-02-14T06:27:55;9.00;73.00
28546;DHT22;15749;49.606;8.738;2023-02-14T06:30:25;9.00;72.70
28546;DHT22;15749;49.606;8.738;2023-02-14T06:32:54;9.00;72.70
28546;DHT22;15749;49.606;8.738;2023-02-14T06:35:24;9.00;72.80
28546;DHT22;15749;49.606;8.738;2023-02-14T06:37:53;9.00;73.10
28546;DHT22;15749;49.606;8.738;2023-02-14T06:40:25;9.00;73.10
28546;DHT22;15749;49.606;8.738;2023-02-14T06:42:55;9.00;73.10
28546;DHT22;15749;49.606;8.738;2023-02-14T06:45:24;9.00;73.10
28546;DHT22;15749;49.606;8.738;2023-02-14T06:47:53;9.00;73.20
28546;DHT22;15749;49.606;8.738;2023-02-14T06:50:21;9.00;73.20
28546;DHT22;15749;49.606;8.738;2023-02-14T06:52:55;8.90;73.10
28546;DHT22;15749;49.606;8.738;2023-02-14T06:55:24;9.00;73.30
28546;DHT22;15749;49.606;8.738;2023-02-14T06:57:53;9.00;73.30
28546;DHT22;15749;49.606;8.738;2023-02-14T07:00:22;8.90;73.30
28546;DHT22;15749;49.606;8.738;2023-02-14T07:02:51;8.90;73.40
28546;DHT22;15749;49.606;8.738;2023-02-14T07:05:21;8.90;73.50
28546;DHT22;15749;49.606;8.738;2023-02-14T07:07:50;8.90;73.70
28546;DHT22;15749;49.606;8.738;2023-02-14T07:10:20;8.90;73.70
28546;DHT22;15749;49.606;8.738;2023-02-14T07:12:49;8.90;73.90
28546;DHT22;15749;49.606;8.738;2023-02-14T07:15:18;8.90;73.80
28546;DHT22;15749;49.606;8.738;2023-02-14T07:17:48;8.90;73.90
28546;DHT22;15749;49.606;8.738;2023-02-14T07:20:17;8.90;73.80
28546;DHT22;15749;49.606;8.738;2023-02-14T07:22:47;8.80;73.60
28546;DHT22;15749;49.606;8.738;2023-02-14T07:25:16;8.90;73.50
28546;DHT22;15749;49.606;8.738;2023-02-14T07:27:47;8.80;74.20
28546;DHT22;15749;49.606;8.738;2023-02-14T07:30:16;8.80;73.70
28546;DHT22;15749;49.606;8.738;2023-02-14T07:32:49;8.80;73.70
28546;DHT22;15749;49.606;8.738;2023-02-14T07:35:18;8.80;73.70
28546;DHT22;15749;49.606;8.738;2023-02-14T07:37:49;8.80;73.80
28546;DHT22;15749;49.606;8.738;2023-02-14T07:40:18;8.80;73.90
28546;DHT22;15749;49.606;8.738;2023-02-14T07:42:53;8.80;73.80
28546;DHT22;15749;49.606;8.738;2023-02-14T07:45:24;8.80;74.10
28546;DHT22;15749;49.606;8.738;2023-02-14T07:47:54;8.80;74.00
28546;DHT22;15749;49.606;8.738;2023-02-14T07:50:25;8.80;74.00
28546;DHT22;15749;49.606;8.738;2023-02-14T07:52:55;8.80;74.10
28546;DHT22;15749;49.606;8.738;2023-02-14T07:55:24;8.80;74.20
28546;DHT22;15749;49.606;8.738;2023-02-14T07:57:54;8.80;74.30
28546;DHT22;15749;49.606;8.738;2023-02-14T08:00:24;8.80;74.60
28546;DHT22;15749;49.606;8.738;2023-02-14T08:02:53;8.80;74.60
28546;DHT22;15749;49.606;8.738;2023-02-14T08:05:25;8.80;74.70
28546;DHT22;15749;49.606;8.738;2023-02-14T08:07:54;8.90;74.90
28546;DHT22;15749;49.606;8.738;2023-02-14T08:10:23;8.90;75.70
28546;DHT22;15749;49.606;8.738;2023-02-14T08:12:54;8.90;75.10
28546;DHT22;15749;49.606;8.738;2023-02-14T08:15:45;9.00;75.10
28546;DHT22;15749;49.606;8.738;2023-02-14T08:18:36;9.00;75.70
28546;DHT22;15749;49.606;8.738;2023-02-14T08:21:10;9.00;75.20
28546;DHT22;15749;49.606;8.738;2023-02-14T08:23:39;9.10;75.20
28546;DHT22;15749;49.606;8.738;2023-02-14T08:26:09;9.10;75.20
28546;DHT22;15749;49.606;8.738;2023-02-14T08:28:43;9.20;75.20
28546;DHT22;15749;49.606;8.738;2023-02-14T08:31:21;9.20;75.20
28546;DHT22;15749;49.606;8.738;2023-02-14T08:34:03;9.30;75.40
28546;DHT22;15749;49.606;8.738;2023-02-14T08:36:43;9.30;75.10
28546;DHT22;15749;49.606;8.738;2023-02-14T08:39:19;9.40;75.50
28546;DHT22;15749;49.606;8.738;2023-02-14T08:41:51;9.50;75.50
28546;DHT22;15749;49.606;8.738;2023-02-14T08:44:37;9.50;75.80
28546;DHT22;15749;49.606;8.738;2023-02-14T08:47:16;9.60;75.80
28546;DHT22;15749;49.606;8.738;2023-02-14T08:49:48;9.70;75.60
28546;DHT22;15749;49.606;8.738;2023-02-14T08:52:17;9.80;75.70
28546;DHT22;15749;49.606;8.738;2023-02-14T08:54:46;9.80;75.80
28546;DHT22;15749;49.606;8.738;2023-02-14T08:57:16;9.90;75.80
28546;DHT22;15749;49.606;8.738;2023-02-14T08:59:47;10.00;75.80
28546;DHT22;15749;49.606;8.738;2023-02-14T09:02:16;10.10;75.80
28546;DHT22;15749;49.606;8.738;2023-02-14T09:04:46;10.20;75.90
28546;DHT22;15749;49.606;8.738;2023-02-14T09:07:15;10.20;75.90
28546;DHT22;15749;49.606;8.738;2023-02-14T09:09:46;10.30;76.00
28546;DHT22;15749;49.606;8.738;2023-02-14T09:12:18;10.40;76.00
28546;DHT22;15749;49.606;8.738;2023-02-14T09:14:49;10.50;76.00
28546;DHT22;15749;49.606;8.738;2023-02-14T09:17:18;10.60;76.00
28546;DHT22;15749;49.606;8.738;2023-02-14T09:19:48;10.70;76.40
28546;DHT22;15749;49.606;8.738;2023-02-14T09:22:18;10.80;76.60
28546;DHT22;15749;49.606;8.738;2023-02-14T09:24:48;10.90;76.60
28546;DHT22;15749;49.606;8.738;2023-02-14T09:27:17;11.00;76.80
28546;DHT22;15749;49.606;8.738;2023-02-14T09:29:48;11.10;77.00
28546;DHT22;15749;49.606;8.738;2023-02-14T09:32:18;11.30;77.10
28546;DHT22;15749;49.606;8.738;2023-02-14T09:34:47;11.40;76.90
28546;DHT22;15749;49.606;8.738;2023-02-14T09:37:34;11.50;76.60
28546;DHT22;15749;49.606;8.738;2023-02-14T09:40:04;11.60;76.40
28546;DHT22;15749;49.606;8.738;2023-02-14T09:42:50;11.80;76.40
28546;DHT22;15749;49.606;8.738;2023-02-14T09:45:25;11.90;76.00
28546;DHT22;15749;49.606;8.738;2023-02-14T09:48:00;12.00;77.10
28546;DHT22;15749;49.606;8.738;2023-02-14T09:50:37;12.20;77.70
28546;DHT22;15749;49.606;8.738;2023-02-14T09:53:17;12.40;78.10
28546;DHT22;15749;49.606;8.738;2023-02-14T09:55:54;12.50;78.10
28546;DHT22;15749;49.606;8.738;2023-02-14T09:58:31;12.70;77.70
28546;DHT22;15749;49.606;8.738;2023-02-14T10:01:11;12.90;77.30
28546;DHT22;15749;49.606;8.738;2023-02-14T10:04:05;13.10;76.60
28546;DHT22;15749;49.606;8.738;2023-02-14T10:06:53;13.20;75.80
28546;DHT22;15749;49.606;8.738;2023-02-14T10:09:39;13.40;76.60
28546;DHT22;15749;49.606;8.738;2023-02-14T10:12:21;13.50;77.40
28546;DHT22;15749;49.606;8.738;2023-02-14T10:14:54;13.70;77.80
28546;DHT22;15749;49.606;8.738;2023-02-14T10:17:33;13.80;78.00
28546;DHT22;15749;49.606;8.738;2023-02-14T10:20:15;14.00;78.20
28546;DHT22;15749;49.606;8.738;2023-02-14T10:22:59;14.20;78.30
28546;DHT22;15749;49.606;8.738;2023-02-14T10:25:38;14.40;78.30
28546;DHT22;15749;49.606;8.738;2023-02-14T10:28:12;14.60;78.00
28546;DHT22;15749;49.606;8.738;2023-02-14T10:30:48;14.70;78.10
28546;DHT22;15749;49.606;8.738;2023-02-14T10:33:25;14.90;77.80
28546;DHT22;15749;49.606;8.738;2023-02-14T10:36:02;15.10;76.50
28546;DHT22;15749;49.606;8.738;2023-02-14T10:38:38;15.20;75.40
28546;DHT22;15749;49.606;8.738;2023-02-14T10:41:22;15.40;75.70
28546;DHT22;15749;49.606;8.738;2023-02-14T10:44:03;15.50;75.00
28546;DHT22;15749;49.606;8.738;2023-02-14T10:46:45;15.60;74.60
28546;DHT22;15749;49.606;8.738;2023-02-14T10:49:26;15.70;75.60
28546;DHT22;15749;49.606;8.738;2023-02-14T10:52:07;15.90;74.40
28546;DHT22;15749;49.606;8.738;2023-02-14T10:54:51;16.00;75.40
28546;DHT22;15749;49.606;8.738;2023-02-14T10:57:26;16.10;75.70
28546;DHT22;15749;49.606;8.738;2023-02-14T11:00:01;16.30;76.00
28546;DHT22;15749;49.606;8.738;2023-02-14T11:02:36;16.40;75.90
28546;DHT22;15749;49.606;8.738;2023-02-14T11:05:22;16.50;75.70
28546;DHT22;15749;49.606;8.738;2023-02-14T11:07:54;16.70;75.00
28546;DHT22;15749;49.606;8.738;2023-02-14T11:10:30;16.80;75.50
28546;DHT22;15749;49.606;8.738;2023-02-14T11:13:00;17.00;75.40
28546;DHT22;15749;49.606;8.738;2023-02-14T11:15:32;17.10;75.50
28546;DHT22;15749;49.606;8.738;2023-02-14T11:18:12;17.20;74.90
28546;DHT22;15749;49.606;8.738;2023-02-14T11:21:01;17.30;74.90
28546;DHT22;15749;49.606;8.738;2023-02-14T11:23:35;17.40;74.80
28546;DHT22;15749;49.606;8.738;2023-02-14T11:26:26;17.50;74.70
28546;DHT22;15749;49.606;8.738;2023-02-14T11:29:00;17.70;74.10
28546;DHT22;15749;49.606;8.738;2023-02-14T11:31:33;17.80;73.90
28546;DHT22;15749;49.606;8.738;2023-02-14T11:34:11;17.90;73.80
28546;DHT22;15749;49.606;8.738;2023-02-14T11:36:52;17.90;73.30
28546;DHT22;15749;49.606;8.738;2023-02-14T11:39:27;18.00;73.40
28546;DHT22;15749;49.606;8.738;2023-02-14T11:42:00;18.10;72.50
28546;DHT22;15749;49.606;8.738;2023-02-14T11:44:33;18.20;72.20
28546;DHT22;15749;49.606;8.738;2023-02-14T11:47:24;18.20;71.90
28546;DHT22;15749;49.606;8.738;2023-02-14T11:49:56;18.30;71.10
28546;DHT22;15749;49.606;8.738;2023-02-14T11:52:29;18.30;71.40
28546;DHT22;15749;49.606;8.738;2023-02-14T11:54:59;18.30;71.00
28546;DHT22;15749;49.606;8.738;2023-02-14T11:57:32;18.30;70.50
28546;DHT22;15749;49.606;8.738;2023-02-14T12:00:12;18.30;70.20
28546;DHT22;15749;49.606;8.738;2023-02-14T12:02:45;18.30;69.60
28546;DHT22;15749;49.606;8.738;2023-02-14T12:05:19;18.20;69.90
28546;DHT22;15749;49.606;8.738;2023-02-14T12:07:55;18.20;69.60
28546;DHT22;15749;49.606;8.738;2023-02-14T12:10:26;18.20;69.40
28546;DHT22;15749;49.606;8.738;2023-02-14T12:13:02;18.20;69.50
28546;DHT22;15749;49.606;8.738;2023-02-14T12:15:51;18.10;69.00
28546;DHT22;15749;49.606;8.738;2023-02-14T12:18:35;18.10;69.20
28546;DHT22;15749;49.606;8.738;2023-02-14T12:21:23;18.10;68.80
28546;DHT22;15749;49.606;8.738;2023-02-14T12:24:04;18.20;68.50
28546;DHT22;15749;49.606;8.738;2023-02-14T12:26:37;18.20;69.00
28546;DHT22;15749;49.606;8.738;2023-02-14T12:29:14;18.20;68.90
28546;DHT22;15749;49.606;8.738;2023-02-14T12:31:48;18.20;69.00
28546;DHT22;15749;49.606;8.738;2023-02-14T12:34:19;18.30;69.50
28546;DHT22;15749;49.606;8.738;2023-02-14T12:37:07;18.30;69.40
28546;DHT22;15749;49.606;8.738;2023-02-14T12:40:09;18.40;68.80
28546;DHT22;15749;49.606;8.738;2023-02-14T12:43:01;18.50;69.20
28546;DHT22;15749;49.606;8.738;2023-02-14T12:46:03;18.60;69.20
28546;DHT22;15749;49.606;8.738;2023-02-14T12:55:42;18.80;66.90
28546;DHT22;15749;49.606;8.738;2023-02-14T12:58:32;18.80;67.00
28546;DHT22;15749;49.606;8.738;2023-02-14T13:04:56;18.80;66.00
28546;DHT22;15749;49.606;8.738;2023-02-14T13:07:58;18.60;64.90
28546;DHT22;15749;49.606;8.738;2023-02-14T13:10:52;18.50;65.30
28546;DHT22;15749;49.606;8.738;2023-02-14T13:13:38;18.40;65.10
28546;DHT22;15749;49.606;8.738;2023-02-14T13:16:21;18.30;65.00
28546;DHT22;15749;49.606;8.738;2023-02-14T13:19:00;18.20;64.40
28546;DHT22;15749;49.606;8.738;2023-02-14T13:21:34;18.00;64.50
28546;DHT22;15749;49.606;8.738;2023-02-14T13:24:14;17.90;64.40
28546;DHT22;15749;49.606;8.738;2023-02-14T13:26:48;17.70;65.00
28546;DHT22;15749;49.606;8.738;2023-02-14T13:29:24;17.60;64.30
28546;DHT22;15749;49.606;8.738;2023-02-14T13:32:01;17.40;64.50
28546;DHT22;15749;49.606;8.738;2023-02-14T13:34:33;17.30;64.30
28546;DHT22;15749;49.606;8.738;2023-02-14T13:37:08;17.20;64.70
28546;DHT22;15749;49.606;8.738;2023-02-14T13:39:41;17.00;65.70
28546;DHT22;15749;49.606;8.738;2023-02-14T13:42:53;16.90;65.20
28546;DHT22;15749;49.606;8.738;2023-02-14T13:45:52;16.80;65.30
28546;DHT22;15749;49.606;8.738;2023-02-14T13:48:24;16.60;65.70
28546;DHT22;15749;49.606;8.738;2023-02-14T13:50:56;16.50;65.30
28546;DHT22;15749;49.606;8.738;2023-02-14T13:53:39;16.40;65.70
28546;DHT22;15749;49.606;8.738;2023-02-14T13:56:31;16.30;66.00
28546;DHT22;15749;49.606;8.738;2023-02-14T13:59:04;16.20;66.50
28546;DHT22;15749;49.606;8.738;2023-02-14T14:01:36;16.10;65.80
28546;DHT22;15749;49.606;8.738;2023-02-14T14:04:35;16.10;66.10
28546;DHT22;15749;49.606;8.738;2023-02-14T14:07:20;16.00;66.60
28546;DHT22;15749;49.606;8.738;2023-02-14T14:09:58;15.90;66.50
28546;DHT22;15749;49.606;8.738;2023-02-14T14:12:50;15.80;66.10
28546;DHT22;15749;49.606;8.738;2023-02-14T14:15:21;15.70;66.10
28546;DHT22;15749;49.606;8.738;2023-02-14T14:18:30;15.70;65.50
28546;DHT22;15749;49.606;8.738;2023-02-14T14:21:14;15.50;65.50
28546;DHT22;15749;49.606;8.738;2023-02-14T14:24:04;15.40;65.20
28546;DHT22;15749;49.606;8.738;2023-02-14T14:26:57;15.30;65.30
28546;DHT22;15749;49.606;8.738;2023-02-14T14:29:39;15.20;65.20
28546;DHT22;15749;49.606;8.738;2023-02-14T14:32:25;15.10;65.20
28546;DHT22;15749;49.606;8.738;2023-02-14T14:35:01;14.90;65.40
28546;DHT22;15749;49.606;8.738;2023-02-14T14:37:51;14.80;65.30
28546;DHT22;15749;49.606;8.738;2023-02-14T14:40:37;14.70;65.40
28546;DHT22;15749;49.606;8.738;2023-02-14T14:43:47;14.60;65.50
28546;DHT22;15749;49.606;8.738;2023-02-14T14:46:30;14.40;65.30
28546;DHT22;15749;49.606;8.738;2023-02-14T14:49:10;14.30;65.40
28546;DHT22;15749;49.606;8.738;2023-02-14T14:51:56;14.20;65.70
28546;DHT22;15749;49.606;8.738;2023-02-14T14:54:35;14.10;65.70
28546;DHT22;15749;49.606;8.738;2023-02-14T14:57:17;14.00;65.70
28546;DHT22;15749;49.606;8.738;2023-02-14T15:00:16;13.90;65.80
28546;DHT22;15749;49.606;8.738;2023-02-14T15:03:41;13.80;66.10
28546;DHT22;15749;49.606;8.738;2023-02-14T15:07:17;13.70;65.70
28546;DHT22;15749;49.606;8.738;2023-02-14T15:09:53;13.60;66.40
28546;DHT22;15749;49.606;8.738;2023-02-14T15:12:25;13.50;66.00
28546;DHT22;15749;49.606;8.738;2023-02-14T15:15:18;13.40;66.20
28546;DHT22;15749;49.606;8.738;2023-02-14T15:17:57;13.30;66.40
28546;DHT22;15749;49.606;8.738;2023-02-14T15:20:27;13.20;66.40
28546;DHT22;15749;49.606;8.738;2023-02-14T15:23:06;13.20;66.60
28546;DHT22;15749;49.606;8.738;2023-02-14T15:25:56;13.10;66.80
28546;DHT22;15749;49.606;8.738;2023-02-14T15:28:55;13.10;66.70
28546;DHT22;15749;49.606;8.738;2023-02-14T15:31:58;13.00;66.80
28546;DHT22;15749;49.606;8.738;2023-02-14T15:34:37;12.90;66.60
28546;DHT22;15749;49.606;8.738;2023-02-14T15:37:23;12.90;66.90
28546;DHT22;15749;49.606;8.738;2023-02-14T15:40:07;12.80;67.50
28546;DHT22;15749;49.606;8.738;2023-02-14T15:42:59;12.80;67.60
28546;DHT22;15749;49.606;8.738;2023-02-14T15:45:58;12.70;67.60
28546;DHT22;15749;49.606;8.738;2023-02-14T15:48:44;12.70;67.90
28546;DHT22;15749;49.606;8.738;2023-02-14T15:51:19;12.60;67.90
28546;DHT22;15749;49.606;8.738;2023-02-14T15:54:00;12.60;68.00
28546;DHT22;15749;49.606;8.738;2023-02-14T15:56:46;12.60;68.00
28546;DHT22;15749;49.606;8.738;2023-02-14T15:59:24;12.60;68.30
28546;DHT22;15749;49.606;8.738;2023-02-14T16:02:25;12.60;68.40
28546;DHT22;15749;49.606;8.738;2023-02-14T16:05:03;12.50;68.90
28546;DHT22;15749;49.606;8.738;2023-02-14T16:07:36;12.50;68.70
28546;DHT22;15749;49.606;8.738;2023-02-14T16:10:33;12.50;68.30
28546;DHT22;15749;49.606;8.738;2023-02-14T16:13:27;12.50;68.50
28546;DHT22;15749;49.606;8.738;2023-02-14T16:16:14;12.50;68.70
28546;DHT22;15749;49.606;8.738;2023-02-14T16:18:52;12.50;68.50
28546;DHT22;15749;49.606;8.738;2023-02-14T16:21:28;12.40;68.70
28546;DHT22;15749;49.606;8.738;2023-02-14T16:24:11;12.40;68.60
28546;DHT22;15749;49.606;8.738;2023-02-14T16:27:11;12.40;69.10
28546;DHT22;15749;49.606;8.738;2023-02-14T16:29:52;12.30;68.70
28546;DHT22;15749;49.606;8.738;2023-02-14T16:32:22;12.30;68.80
28546;DHT22;15749;49.606;8.738;2023-02-14T16:35:18;12.30;68.80
28546;DHT22;15749;49.606;8.738;2023-02-14T16:37:51;12.30;69.10
28546;DHT22;15749;49.606;8.738;2023-02-14T16:40:42;12.20;69.20
28546;DHT22;15749;49.606;8.738;2023-02-14T16:43:18;12.30;69.00
28546;DHT22;15749;49.606;8.738;2023-02-14T16:45:52;12.30;69.00
28546;DHT22;15749;49.606;8.738;2023-02-14T16:48:24;12.20;68.80
28546;DHT22;15749;49.606;8.738;2023-02-14T16:50:56;12.20;68.70